sensor_id;sensor_type;location;lat;lon;timestamp;temperature;humidity
12839;DHT22;6486;51.034;5.262;2023-08-24T00:01:07;22.50;61.50
12839;DHT22;6486;51.034;5.262;2023-08-24T00:03:34;22.60;61.60
12839;DHT22;6486;51.034;5.262;2023-08-24T00:06:00;22.60;61.70
12839;DHT22;6486;51.034;5.262;2023-08-24T00:08:26;22.60;61.70
12839;DHT22;6486;51.034;5.262;2023-08-24T00:10:52;22.60;61.80
12839;DHT22;6486;51.034;5.262;2023-08-24T00:13:18;22.60;61.80
12839;DHT22;6486;51.034;5.262;2023-08-24T00:15:45;22.60;61.90
12839;DHT22;6486;51.034;5.262;2023-08-24T00:18:10;22.50;61.90
12839;DHT22;6486;51.034;5.262;2023-08-24T00:20:36;22.50;62.00
12839;DHT22;6486;51.034;5.262;2023-08-24T00:23:03;22.50;62.10
12839;DHT22;6486;51.034;5.262;2023-08-24T00:25:29;22.50;62.20
12839;DHT22;6486;51.034;5.262;2023-08-24T00:27:55;22.50;62.30
12839;DHT22;6486;51.034;5.262;2023-08-24T00:30:21;22.50;62.40
12839;DHT22;6486;51.034;5.262;2023-08-24T00:32:47;22.50;62.40
12839;DHT22;6486;51.034;5.262;2023-08-24T00:35:13;22.50;62.40
12839;DHT22;6486;51.034;5.262;2023-08-24T00:37:39;22.50;62.50
12839;DHT22;6486;51.034;5.262;2023-08-24T00:40:06;22.50;63.20
12839;DHT22;6486;51.034;5.262;2023-08-24T00:42:43;22.50;62.50
12839;DHT22;6486;51.034;5.262;2023-08-24T00:45:10;22.50;62.60
12839;DHT22;6486;51.034;5.262;2023-08-24T00:47:46;22.50;62.60
12839;DHT22;6486;51.034;5.262;2023-08-24T00:50:12;22.50;62.60
12839;DHT22;6486;51.034;5.262;2023-08-24T00:52:41;22.50;62.70
12839;DHT22;6486;51.034;5.262;2023-08-24T00:55:08;22.50;62.70
12839;DHT22;6486;51.034;5.262;2023-08-24T00:57:35;22.50;62.60
12839;DHT22;6486;51.034;5.262;2023-08-24T01:00:04;22.50;62.60
12839;DHT22;6486;51.034;5.262;2023-08-24T01:02:31;22.50;62.70
12839;DHT22;6486;51.034;5.262;2023-08-24T01:04:58;22.50;62.70
12839;DHT22;6486;51.034;5.262;2023-08-24T01:07:24;22.50;62.80
12839;DHT22;6486;51.034;5.262;2023-08-24T01:09:51;22.50;62.80
12839;DHT22;6486;51.034;5.262;2023-08-24T01:15:32;22.40;62.80
12839;DHT22;6486;51.034;5.262;2023-08-24T01:18:10;22.40;62.90
12839;DHT22;6486;51.034;5.262;2023-08-24T01:20:39;22.40;62.90
12839;DHT22;6486;51.034;5.262;2023-08-24T01:23:27;22.40;62.90
12839;DHT22;6486;51.034;5.262;2023-08-24T01:26:06;22.40;63.60
12839;DHT22;6486;51.034;5.262;2023-08-24T01:28:33;22.40;63.00
12839;DHT22;6486;51.034;5.262;2023-08-24T01:30:59;22.40;62.90
12839;DHT22;6486;51.034;5.262;2023-08-24T01:33:25;22.40;62.90
12839;DHT22;6486;51.034;5.262;2023-08-24T01:35:50;22.50;63.00
12839;DHT22;6486;51.034;5.262;2023-08-24T01:38:16;22.50;63.10
12839;DHT22;6486;51.034;5.262;2023-08-24T01:40:51;22.50;63.10
12839;DHT22;6486;51.034;5.262;2023-08-24T01:43:21;22.40;63.00
12839;DHT22;6486;51.034;5.262;2023-08-24T01:45:51;22.40;63.10
12839;DHT22;6486;51.034;5.262;2023-08-24T01:48:17;22.50;63.30
12839;DHT22;6486;51.034;5.262;2023-08-24T01:50:43;22.40;63.20
12839;DHT22;6486;51.034;5.262;2023-08-24T01:53:09;22.40;63.30
12839;DHT22;6486;51.034;5.262;2023-08-24T01:55:35;22.40;63.40
12839;DHT22;6486;51.034;5.262;2023-08-24T01:58:01;22.40;63.40
12839;DHT22;6486;51.034;5.262;2023-08-24T02:00:26;22.40;63.40
12839;DHT22;6486;51.034;5.262;2023-08-24T02:02:52;22.50;63.50
12839;DHT22;6486;51.034;5.262;2023-08-24T02:05:18;22.50;63.50
12839;DHT22;6486;51.034;5.262;2023-08-24T02:07:44;22.50;63.50
12839;DHT22;6486;51.034;5.262;2023-08-24T02:10:09;22.40;63.40
12839;DHT22;6486;51.034;5.262;2023-08-24T02:12:35;22.40;63.50
12839;DHT22;6486;51.034;5.262;2023-08-24T02:15:01;22.40;63.50
12839;DHT22;6486;51.034;5.262;2023-08-24T02:17:26;22.40;63.60
12839;DHT22;6486;51.034;5.262;2023-08-24T02:19:52;22.40;63.70
12839;DHT22;6486;51.034;5.262;2023-08-24T02:22:18;22.40;63.80
12839;DHT22;6486;51.034;5.262;2023-08-24T02:24:43;22.40;63.90
12839;DHT22;6486;51.034;5.262;2023-08-24T02:27:09;22.40;64.00
12839;DHT22;6486;51.034;5.262;2023-08-24T02:29:35;22.30;64.00
12839;DHT22;6486;51.034;5.262;2023-08-24T02:32:01;22.30;64.10
12839;DHT22;6486;51.034;5.262;2023-08-24T02:34:27;22.30;64.20
12839;DHT22;6486;51.034;5.262;2023-08-24T02:36:52;22.30;64.30
12839;DHT22;6486;51.034;5.262;2023-08-24T02:39:18;22.20;64.30
12839;DHT22;6486;51.034;5.262;2023-08-24T02:41:43;22.20;64.50
12839;DHT22;6486;51.034;5.262;2023-08-24T02:44:09;22.20;64.70
12839;DHT22;6486;51.034;5.262;2023-08-24T02:46:35;22.20;64.80
12839;DHT22;6486;51.034;5.262;2023-08-24T02:49:00;22.20;64.90
12839;DHT22;6486;51.034;5.262;2023-08-24T02:51:26;22.20;65.00
12839;DHT22;6486;51.034;5.262;2023-08-24T02:53:52;22.20;65.10
12839;DHT22;6486;51.034;5.262;2023-08-24T02:56:17;22.20;65.20
12839;DHT22;6486;51.034;5.262;2023-08-24T02:58:43;22.20;65.20
12839;DHT22;6486;51.034;5.262;2023-08-24T03:01:09;22.20;65.40
12839;DHT22;6486;51.034;5.262;2023-08-24T03:03:37;22.20;65.60
12839;DHT22;6486;51.034;5.262;2023-08-24T03:06:05;22.10;65.80
12839;DHT22;6486;51.034;5.262;2023-08-24T03:08:32;22.10;66.10
12839;DHT22;6486;51.034;5.262;2023-08-24T03:11:02;22.10;66.30
12839;DHT22;6486;51.034;5.262;2023-08-24T03:13:29;22.00;66.40
12839;DHT22;6486;51.034;5.262;2023-08-24T03:15:55;21.90;66.60
12839;DHT22;6486;51.034;5.262;2023-08-24T03:18:20;21.90;66.90
12839;DHT22;6486;51.034;5.262;2023-08-24T03:20:47;21.80;67.00
12839;DHT22;6486;51.034;5.262;2023-08-24T03:23:13;21.80;67.20
12839;DHT22;6486;51.034;5.262;2023-08-24T03:25:41;21.70;67.40
12839;DHT22;6486;51.034;5.262;2023-08-24T03:28:08;21.60;67.50
12839;DHT22;6486;51.034;5.262;2023-08-24T03:30:35;21.60;67.80
12839;DHT22;6486;51.034;5.262;2023-08-24T03:33:02;21.60;67.90
12839;DHT22;6486;51.034;5.262;2023-08-24T03:35:29;21.60;68.00
12839;DHT22;6486;51.034;5.262;2023-08-24T03:37:55;21.50;68.00
12839;DHT22;6486;51.034;5.262;2023-08-24T03:40:21;21.50;68.00
12839;DHT22;6486;51.034;5.262;2023-08-24T03:42:47;21.50;68.20
12839;DHT22;6486;51.034;5.262;2023-08-24T03:45:12;21.40;68.20
12839;DHT22;6486;51.034;5.262;2023-08-24T03:47:38;21.40;68.30
12839;DHT22;6486;51.034;5.262;2023-08-24T03:50:04;21.40;68.40
12839;DHT22;6486;51.034;5.262;2023-08-24T03:52:30;21.30;68.40
12839;DHT22;6486;51.034;5.262;2023-08-24T03:54:56;21.30;68.50
12839;DHT22;6486;51.034;5.262;2023-08-24T03:57:22;21.30;68.60
12839;DHT22;6486;51.034;5.262;2023-08-24T03:59:48;21.30;68.70
12839;DHT22;6486;51.034;5.262;2023-08-24T04:02:14;21.30;68.90
12839;DHT22;6486;51.034;5.262;2023-08-24T04:04:40;21.30;69.00
12839;DHT22;6486;51.034;5.262;2023-08-24T04:07:05;21.30;69.00
12839;DHT22;6486;51.034;5.262;2023-08-24T04:09:31;21.30;69.10
12839;DHT22;6486;51.034;5.262;2023-08-24T04:11:57;21.30;69.20
12839;DHT22;6486;51.034;5.262;2023-08-24T04:14:22;21.30;69.20
12839;DHT22;6486;51.034;5.262;2023-08-24T04:16:48;21.20;69.30
12839;DHT22;6486;51.034;5.262;2023-08-24T04:19:13;21.20;69.30
12839;DHT22;6486;51.034;5.262;2023-08-24T04:21:39;21.20;69.40
12839;DHT22;6486;51.034;5.262;2023-08-24T04:24:05;21.10;69.30
12839;DHT22;6486;51.034;5.262;2023-08-24T04:26:31;21.10;69.50
12839;DHT22;6486;51.034;5.262;2023-08-24T04:28:56;21.10;69.60
12839;DHT22;6486;51.034;5.262;2023-08-24T04:31:22;21.10;69.70
12839;DHT22;6486;51.034;5.262;2023-08-24T04:33:48;21.00;69.60
12839;DHT22;6486;51.034;5.262;2023-08-24T04:36:13;21.00;69.60
12839;DHT22;6486;51.034;5.262;2023-08-24T04:38:39;21.00;69.80
12839;DHT22;6486;51.034;5.262;2023-08-24T04:41:07;21.00;69.90
12839;DHT22;6486;51.034;5.262;2023-08-24T04:43:34;21.00;70.00
12839;DHT22;6486;51.034;5.262;2023-08-24T04:45:59;21.00;70.10
12839;DHT22;6486;51.034;5.262;2023-08-24T04:48:26;21.00;70.10
12839;DHT22;6486;51.034;5.262;2023-08-24T04:50:52;21.00;70.20
12839;DHT22;6486;51.034;5.262;2023-08-24T04:53:21;21.00;70.30
12839;DHT22;6486;51.034;5.262;2023-08-24T04:55:47;21.00;70.40
12839;DHT22;6486;51.034;5.262;2023-08-24T04:58:13;21.00;70.40
12839;DHT22;6486;51.034;5.262;2023-08-24T05:00:39;21.00;70.40
12839;DHT22;6486;51.034;5.262;2023-08-24T05:03:06;21.00;70.50
12839;DHT22;6486;51.034;5.262;2023-08-24T05:05:32;21.00;70.50
12839;DHT22;6486;51.034;5.262;2023-08-24T05:07:59;21.00;71.30
12839;DHT22;6486;51.034;5.262;2023-08-24T05:10:25;21.00;70.70
12839;DHT22;6486;51.034;5.262;2023-08-24T05:12:51;21.00;70.80
12839;DHT22;6486;51.034;5.262;2023-08-24T05:15:17;21.00;70.90
12839;DHT22;6486;51.034;5.262;2023-08-24T05:17:42;21.00;70.90
12839;DHT22;6486;51.034;5.262;2023-08-24T05:20:08;21.00;71.00
12839;DHT22;6486;51.034;5.262;2023-08-24T05:22:38;20.90;71.00
12839;DHT22;6486;51.034;5.262;2023-08-24T05:25:03;21.00;71.20
12839;DHT22;6486;51.034;5.262;2023-08-24T05:27:30;21.00;71.20
12839;DHT22;6486;51.034;5.262;2023-08-24T05:29:56;21.00;71.20
12839;DHT22;6486;51.034;5.262;2023-08-24T05:32:22;21.00;71.20
12839;DHT22;6486;51.034;5.262;2023-08-24T05:34:47;21.00;71.20
12839;DHT22;6486;51.034;5.262;2023-08-24T05:37:13;21.00;71.30
12839;DHT22;6486;51.034;5.262;2023-08-24T05:39:39;21.00;71.30
12839;DHT22;6486;51.034;5.262;2023-08-24T05:42:05;21.00;71.30
12839;DHT22;6486;51.034;5.262;2023-08-24T05:44:31;21.10;71.40
12839;DHT22;6486;51.034;5.262;2023-08-24T05:46:57;21.10;71.40
12839;DHT22;6486;51.034;5.262;2023-08-24T05:49:22;21.10;71.40
12839;DHT22;6486;51.034;5.262;2023-08-24T05:51:51;21.10;71.40
12839;DHT22;6486;51.034;5.262;2023-08-24T05:54:17;21.10;71.40
12839;DHT22;6486;51.034;5.262;2023-08-24T05:56:47;21.10;71.40
12839;DHT22;6486;51.034;5.262;2023-08-24T05:59:13;21.20;71.50
12839;DHT22;6486;51.034;5.262;2023-08-24T06:01:39;21.20;71.50
12839;DHT22;6486;51.034;5.262;2023-08-24T06:04:08;21.30;71.50
12839;DHT22;6486;51.034;5.262;2023-08-24T06:06:35;21.30;71.50
12839;DHT22;6486;51.034;5.262;2023-08-24T06:09:01;21.30;71.40
12839;DHT22;6486;51.034;5.262;2023-08-24T06:11:26;21.40;71.50
12839;DHT22;6486;51.034;5.262;2023-08-24T06:13:52;21.40;71.60
12839;DHT22;6486;51.034;5.262;2023-08-24T06:16:20;21.50;71.70
12839;DHT22;6486;51.034;5.262;2023-08-24T06:18:45;21.50;71.70
12839;DHT22;6486;51.034;5.262;2023-08-24T06:21:11;21.50;71.70
12839;DHT22;6486;51.034;5.262;2023-08-24T06:23:38;21.50;71.70
12839;DHT22;6486;51.034;5.262;2023-08-24T06:26:04;21.60;71.90
12839;DHT22;6486;51.034;5.262;2023-08-24T06:28:30;21.60;71.80
12839;DHT22;6486;51.034;5.262;2023-08-24T06:30:55;21.70;71.90
12839;DHT22;6486;51.034;5.262;2023-08-24T06:33:21;21.70;71.80
12839;DHT22;6486;51.034;5.262;2023-08-24T06:35:52;21.80;71.90
12839;DHT22;6486;51.034;5.262;2023-08-24T06:38:17;21.90;72.00
12839;DHT22;6486;51.034;5.262;2023-08-24T06:40:43;21.90;71.90
12839;DHT22;6486;51.034;5.262;2023-08-24T06:43:08;22.00;71.90
12839;DHT22;6486;51.034;5.262;2023-08-24T06:45:34;22.10;71.90
12839;DHT22;6486;51.034;5.262;2023-08-24T06:48:00;22.20;72.00
12839;DHT22;6486;51.034;5.262;2023-08-24T06:50:26;22.30;71.90
12839;DHT22;6486;51.034;5.262;2023-08-24T06:52:51;22.40;71.90
12839;DHT22;6486;51.034;5.262;2023-08-24T06:55:17;22.60;71.90
12839;DHT22;6486;51.034;5.262;2023-08-24T06:57:48;22.70;71.70
12839;DHT22;6486;51.034;5.262;2023-08-24T07:00:17;22.80;71.70
12839;DHT22;6486;51.034;5.262;2023-08-24T07:02:42;23.00;71.50
12839;DHT22;6486;51.034;5.262;2023-08-24T07:05:08;23.10;71.50
12839;DHT22;6486;51.034;5.262;2023-08-24T07:07:34;23.20;71.40
12839;DHT22;6486;51.034;5.262;2023-08-24T07:10:00;23.30;71.50
12839;DHT22;6486;51.034;5.262;2023-08-24T07:12:26;23.30;71.40
12839;DHT22;6486;51.034;5.262;2023-08-24T07:14:51;23.40;71.20
12839;DHT22;6486;51.034;5.262;2023-08-24T07:17:17;23.50;71.20
12839;DHT22;6486;51.034;5.262;2023-08-24T07:19:43;23.60;71.00
12839;DHT22;6486;51.034;5.262;2023-08-24T07:22:09;23.80;70.90
12839;DHT22;6486;51.034;5.262;2023-08-24T07:24:34;23.90;70.70
12839;DHT22;6486;51.034;5.262;2023-08-24T07:27:02;24.00;70.60
12839;DHT22;6486;51.034;5.262;2023-08-24T07:29:29;24.10;70.50
12839;DHT22;6486;51.034;5.262;2023-08-24T07:31:54;24.20;70.30
12839;DHT22;6486;51.034;5.262;2023-08-24T07:34:20;24.30;70.20
12839;DHT22;6486;51.034;5.262;2023-08-24T07:36:48;24.40;70.10
12839;DHT22;6486;51.034;5.262;2023-08-24T07:39:14;24.50;70.00
12839;DHT22;6486;51.034;5.262;2023-08-24T07:41:41;24.60;69.90
12839;DHT22;6486;51.034;5.262;2023-08-24T07:44:07;24.80;69.80
12839;DHT22;6486;51.034;5.262;2023-08-24T07:46:33;24.90;69.60
12839;DHT22;6486;51.034;5.262;2023-08-24T07:48:59;25.00;69.40
12839;DHT22;6486;51.034;5.262;2023-08-24T07:51:25;25.20;69.20
12839;DHT22;6486;51.034;5.262;2023-08-24T07:53:50;25.30;68.90
12839;DHT22;6486;51.034;5.262;2023-08-24T07:56:18;25.40;68.80
12839;DHT22;6486;51.034;5.262;2023-08-24T07:58:44;25.40;68.70
12839;DHT22;6486;51.034;5.262;2023-08-24T08:01:10;25.50;68.70
12839;DHT22;6486;51.034;5.262;2023-08-24T08:03:35;25.50;68.50
12839;DHT22;6486;51.034;5.262;2023-08-24T08:06:01;25.60;68.50
12839;DHT22;6486;51.034;5.262;2023-08-24T08:08:27;25.70;68.50
12839;DHT22;6486;51.034;5.262;2023-08-24T08:11:00;25.70;68.40
12839;DHT22;6486;51.034;5.262;2023-08-24T08:13:27;25.80;68.20
12839;DHT22;6486;51.034;5.262;2023-08-24T08:15:53;25.80;68.00
12839;DHT22;6486;51.034;5.262;2023-08-24T08:18:19;25.80;67.90
12839;DHT22;6486;51.034;5.262;2023-08-24T08:20:45;25.90;67.70
12839;DHT22;6486;51.034;5.262;2023-08-24T08:23:10;25.90;67.50
12839;DHT22;6486;51.034;5.262;2023-08-24T08:25:36;26.00;67.50
12839;DHT22;6486;51.034;5.262;2023-08-24T08:28:02;26.00;67.40
12839;DHT22;6486;51.034;5.262;2023-08-24T08:30:27;26.00;67.20
12839;DHT22;6486;51.034;5.262;2023-08-24T08:32:53;26.00;67.20
12839;DHT22;6486;51.034;5.262;2023-08-24T08:35:22;26.10;67.10
12839;DHT22;6486;51.034;5.262;2023-08-24T08:37:47;26.10;67.00
12839;DHT22;6486;51.034;5.262;2023-08-24T08:40:15;26.20;66.90
12839;DHT22;6486;51.034;5.262;2023-08-24T08:42:41;26.20;66.70
12839;DHT22;6486;51.034;5.262;2023-08-24T08:45:10;26.30;66.60
12839;DHT22;6486;51.034;5.262;2023-08-24T08:47:36;26.30;66.50
12839;DHT22;6486;51.034;5.262;2023-08-24T08:50:03;26.40;66.50
12839;DHT22;6486;51.034;5.262;2023-08-24T08:52:30;26.40;66.30
12839;DHT22;6486;51.034;5.262;2023-08-24T08:54:55;26.50;66.20
12839;DHT22;6486;51.034;5.262;2023-08-24T08:57:23;26.50;66.20
12839;DHT22;6486;51.034;5.262;2023-08-24T08:59:51;26.60;65.90
12839;DHT22;6486;51.034;5.262;2023-08-24T09:02:19;26.60;65.80
12839;DHT22;6486;51.034;5.262;2023-08-24T09:04:45;26.70;65.70
12839;DHT22;6486;51.034;5.262;2023-08-24T09:07:13;26.80;65.60
12839;DHT22;6486;51.034;5.262;2023-08-24T09:09:39;26.80;65.50
12839;DHT22;6486;51.034;5.262;2023-08-24T09:12:06;26.80;65.40
12839;DHT22;6486;51.034;5.262;2023-08-24T09:14:32;26.90;65.20
12839;DHT22;6486;51.034;5.262;2023-08-24T09:16:58;27.00;65.10
12839;DHT22;6486;51.034;5.262;2023-08-24T09:19:28;27.10;65.00
12839;DHT22;6486;51.034;5.262;2023-08-24T09:21:57;27.10;64.90
12839;DHT22;6486;51.034;5.262;2023-08-24T09:24:30;27.20;64.80
12839;DHT22;6486;51.034;5.262;2023-08-24T09:26:56;27.40;64.60
12839;DHT22;6486;51.034;5.262;2023-08-24T09:29:22;27.50;64.40
12839;DHT22;6486;51.034;5.262;2023-08-24T09:31:50;27.50;64.30
12839;DHT22;6486;51.034;5.262;2023-08-24T09:34:19;27.60;64.00
12839;DHT22;6486;51.034;5.262;2023-08-24T09:36:46;27.50;63.90
12839;DHT22;6486;51.034;5.262;2023-08-24T09:39:12;27.50;64.00
12839;DHT22;6486;51.034;5.262;2023-08-24T09:41:46;27.40;63.80
12839;DHT22;6486;51.034;5.262;2023-08-24T09:44:12;27.40;63.90
12839;DHT22;6486;51.034;5.262;2023-08-24T09:46:39;27.30;63.90
12839;DHT22;6486;51.034;5.262;2023-08-24T09:49:08;27.20;64.00
12839;DHT22;6486;51.034;5.262;2023-08-24T09:51:35;27.20;64.20
12839;DHT22;6486;51.034;5.262;2023-08-24T09:54:10;27.20;64.30
12839;DHT22;6486;51.034;5.262;2023-08-24T09:56:37;27.20;64.50
12839;DHT22;6486;51.034;5.262;2023-08-24T09:59:22;27.10;64.50
12839;DHT22;6486;51.034;5.262;2023-08-24T10:01:51;27.10;64.50
12839;DHT22;6486;51.034;5.262;2023-08-24T10:04:24;27.00;64.40
12839;DHT22;6486;51.034;5.262;2023-08-24T10:06:56;27.00;64.50
12839;DHT22;6486;51.034;5.262;2023-08-24T10:09:31;26.90;64.50
12839;DHT22;6486;51.034;5.262;2023-08-24T10:12:02;26.90;64.80
12839;DHT22;6486;51.034;5.262;2023-08-24T10:17:08;26.60;65.20
12839;DHT22;6486;51.034;5.262;2023-08-24T10:19:35;26.40;65.70
12839;DHT22;6486;51.034;5.262;2023-08-24T10:22:03;26.20;66.10
12839;DHT22;6486;51.034;5.262;2023-08-24T10:24:29;26.10;66.60
12839;DHT22;6486;51.034;5.262;2023-08-24T10:26:57;26.00;66.90
12839;DHT22;6486;51.034;5.262;2023-08-24T10:29:23;25.90;67.10
12839;DHT22;6486;51.034;5.262;2023-08-24T10:31:51;25.80;67.60
12839;DHT22;6486;51.034;5.262;2023-08-24T10:34:17;25.70;67.80
12839;DHT22;6486;51.034;5.262;2023-08-24T10:36:43;25.50;68.00
12839;DHT22;6486;51.034;5.262;2023-08-24T10:39:08;25.50;68.20
12839;DHT22;6486;51.034;5.262;2023-08-24T10:41:52;25.40;68.40
12839;DHT22;6486;51.034;5.262;2023-08-24T10:44:37;25.30;68.50
12839;DHT22;6486;51.034;5.262;2023-08-24T10:49:59;25.10;68.90
12839;DHT22;6486;51.034;5.262;2023-08-24T10:52:31;25.00;69.00
12839;DHT22;6486;51.034;5.262;2023-08-24T10:55:02;25.00;69.20
12839;DHT22;6486;51.034;5.262;2023-08-24T10:57:40;24.90;69.20
12839;DHT22;6486;51.034;5.262;2023-08-24T11:00:12;24.80;69.40
12839;DHT22;6486;51.034;5.262;2023-08-24T11:08:12;24.60;70.10
12839;DHT22;6486;51.034;5.262;2023-08-24T11:18:24;24.40;71.20
12839;DHT22;6486;51.034;5.262;2023-08-24T11:23:21;24.40;71.40
12839;DHT22;6486;51.034;5.262;2023-08-24T11:25:48;24.40;71.60
12839;DHT22;6486;51.034;5.262;2023-08-24T11:28:19;24.40;71.80
12839;DHT22;6486;51.034;5.262;2023-08-24T11:30:45;24.40;72.00
12839;DHT22;6486;51.034;5.262;2023-08-24T11:33:12;24.40;72.30
12839;DHT22;6486;51.034;5.262;2023-08-24T11:35:44;24.50;72.50
12839;DHT22;6486;51.034;5.262;2023-08-24T11:38:10;24.50;72.50
12839;DHT22;6486;51.034;5.262;2023-08-24T11:40:36;24.60;72.60
12839;DHT22;6486;51.034;5.262;2023-08-24T11:43:03;24.70;72.80
12839;DHT22;6486;51.034;5.262;2023-08-24T11:45:33;24.80;72.90
12839;DHT22;6486;51.034;5.262;2023-08-24T11:48:00;24.90;73.00
12839;DHT22;6486;51.034;5.262;2023-08-24T11:50:30;24.90;73.00
12839;DHT22;6486;51.034;5.262;2023-08-24T11:52:56;25.00;73.10
12839;DHT22;6486;51.034;5.262;2023-08-24T11:55:23;25.00;73.20
12839;DHT22;6486;51.034;5.262;2023-08-24T11:57:49;25.10;73.30
12839;DHT22;6486;51.034;5.262;2023-08-24T12:00:15;25.10;73.40
12839;DHT22;6486;51.034;5.262;2023-08-24T12:02:42;25.20;73.50
12839;DHT22;6486;51.034;5.262;2023-08-24T12:05:19;25.20;73.60
12839;DHT22;6486;51.034;5.262;2023-08-24T12:07:45;25.20;73.80
12839;DHT22;6486;51.034;5.262;2023-08-24T12:10:12;25.30;73.90
12839;DHT22;6486;51.034;5.262;2023-08-24T12:12:38;25.40;74.00
12839;DHT22;6486;51.034;5.262;2023-08-24T12:15:04;25.40;73.90
12839;DHT22;6486;51.034;5.262;2023-08-24T12:17:31;25.40;73.80
12839;DHT22;6486;51.034;5.262;2023-08-24T12:20:07;25.50;73.90
12839;DHT22;6486;51.034;5.262;2023-08-24T12:22:38;25.50;73.70
12839;DHT22;6486;51.034;5.262;2023-08-24T12:25:04;25.50;73.80
12839;DHT22;6486;51.034;5.262;2023-08-24T12:27:31;25.50;73.80
12839;DHT22;6486;51.034;5.262;2023-08-24T12:30:03;25.50;73.90
12839;DHT22;6486;51.034;5.262;2023-08-24T12:32:45;25.50;74.00
12839;DHT22;6486;51.034;5.262;2023-08-24T12:35:13;25.40;74.10
12839;DHT22;6486;51.034;5.262;2023-08-24T12:37:39;25.40;74.20
12839;DHT22;6486;51.034;5.262;2023-08-24T12:40:06;25.50;74.30
12839;DHT22;6486;51.034;5.262;2023-08-24T12:42:32;25.40;74.30
12839;DHT22;6486;51.034;5.262;2023-08-24T12:44:57;25.40;74.30
12839;DHT22;6486;51.034;5.262;2023-08-24T12:47:23;25.40;74.50
12839;DHT22;6486;51.034;5.262;2023-08-24T12:49:49;25.30;74.40
12839;DHT22;6486;51.034;5.262;2023-08-24T12:52:16;25.30;74.60
12839;DHT22;6486;51.034;5.262;2023-08-24T12:54:42;25.30;74.80
12839;DHT22;6486;51.034;5.262;2023-08-24T12:57:08;25.20;74.90
12839;DHT22;6486;51.034;5.262;2023-08-24T12:59:33;25.10;75.00
12839;DHT22;6486;51.034;5.262;2023-08-24T13:01:59;25.10;75.10
12839;DHT22;6486;51.034;5.262;2023-08-24T13:04:25;25.00;75.40
12839;DHT22;6486;51.034;5.262;2023-08-24T13:06:53;25.00;75.60
12839;DHT22;6486;51.034;5.262;2023-08-24T13:09:19;24.90;75.70
12839;DHT22;6486;51.034;5.262;2023-08-24T13:11:44;24.80;75.90
12839;DHT22;6486;51.034;5.262;2023-08-24T13:14:10;24.80;76.00
12839;DHT22;6486;51.034;5.262;2023-08-24T13:16:36;24.70;76.00
12839;DHT22;6486;51.034;5.262;2023-08-24T13:19:01;24.70;76.20
12839;DHT22;6486;51.034;5.262;2023-08-24T13:21:27;24.60;76.20
12839;DHT22;6486;51.034;5.262;2023-08-24T13:23:53;24.60;76.30
12839;DHT22;6486;51.034;5.262;2023-08-24T13:26:22;24.50;76.30
12839;DHT22;6486;51.034;5.262;2023-08-24T13:28:49;24.50;76.40
12839;DHT22;6486;51.034;5.262;2023-08-24T13:31:15;24.40;76.50
12839;DHT22;6486;51.034;5.262;2023-08-24T13:33:41;24.40;76.60
12839;DHT22;6486;51.034;5.262;2023-08-24T13:36:06;24.30;76.70
12839;DHT22;6486;51.034;5.262;2023-08-24T13:38:32;24.20;76.70
12839;DHT22;6486;51.034;5.262;2023-08-24T13:40:58;24.10;76.80
12839;DHT22;6486;51.034;5.262;2023-08-24T13:43:23;24.00;76.90
12839;DHT22;6486;51.034;5.262;2023-08-24T13:45:49;24.00;77.00
12839;DHT22;6486;51.034;5.262;2023-08-24T13:48:14;24.00;77.10
12839;DHT22;6486;51.034;5.262;2023-08-24T13:50:42;23.90;77.10
12839;DHT22;6486;51.034;5.262;2023-08-24T13:53:07;23.80;77.10
12839;DHT22;6486;51.034;5.262;2023-08-24T13:55:33;23.70;77.30
12839;DHT22;6486;51.034;5.262;2023-08-24T13:57:58;23.60;77.40
12839;DHT22;6486;51.034;5.262;2023-08-24T14:00:25;23.50;77.50
12839;DHT22;6486;51.034;5.262;2023-08-24T14:02:51;23.40;77.60
12839;DHT22;6486;51.034;5.262;2023-08-24T14:05:17;23.30;77.80
12839;DHT22;6486;51.034;5.262;2023-08-24T14:07:42;23.20;77.80
12839;DHT22;6486;51.034;5.262;2023-08-24T14:10:08;23.10;77.90
12839;DHT22;6486;51.034;5.262;2023-08-24T14:12:34;23.00;78.00
12839;DHT22;6486;51.034;5.262;2023-08-24T14:15:00;23.00;78.10
12839;DHT22;6486;51.034;5.262;2023-08-24T14:17:26;23.00;78.10
12839;DHT22;6486;51.034;5.262;2023-08-24T14:19:52;23.00;78.10
12839;DHT22;6486;51.034;5.262;2023-08-24T14:22:17;23.00;78.00
12839;DHT22;6486;51.034;5.262;2023-08-24T14:24:43;23.00;78.00
12839;DHT22;6486;51.034;5.262;2023-08-24T14:27:08;23.00;78.00
12839;DHT22;6486;51.034;5.262;2023-08-24T14:29:34;23.00;78.00
12839;DHT22;6486;51.034;5.262;2023-08-24T14:32:00;22.90;78.00
12839;DHT22;6486;51.034;5.262;2023-08-24T14:34:25;22.90;77.90
12839;DHT22;6486;51.034;5.262;2023-08-24T14:36:51;22.90;77.90
12839;DHT22;6486;51.034;5.262;2023-08-24T14:39:17;22.90;78.00
12839;DHT22;6486;51.034;5.262;2023-08-24T14:41:42;22.90;78.00
12839;DHT22;6486;51.034;5.262;2023-08-24T14:44:08;22.90;78.00
12839;DHT22;6486;51.034;5.262;2023-08-24T14:46:33;23.00;78.00
12839;DHT22;6486;51.034;5.262;2023-08-24T14:48:59;23.00;78.00
12839;DHT22;6486;51.034;5.262;2023-08-24T14:51:25;23.00;78.00
12839;DHT22;6486;51.034;5.262;2023-08-24T14:53:51;22.90;77.90
12839;DHT22;6486;51.034;5.262;2023-08-24T14:56:16;22.90;78.00
12839;DHT22;6486;51.034;5.262;2023-08-24T14:58:42;22.90;78.10
12839;DHT22;6486;51.034;5.262;2023-08-24T15:01:08;22.90;78.00
12839;DHT22;6486;51.034;5.262;2023-08-24T15:03:34;22.90;77.90
12839;DHT22;6486;51.034;5.262;2023-08-24T15:06:01;22.90;77.90
12839;DHT22;6486;51.034;5.262;2023-08-24T15:08:32;23.00;78.00
12839;DHT22;6486;51.034;5.262;2023-08-24T15:10:59;23.00;77.80
12839;DHT22;6486;51.034;5.262;2023-08-24T15:13:26;23.00;77.80
12839;DHT22;6486;51.034;5.262;2023-08-24T15:15:53;23.10;77.80
12839;DHT22;6486;51.034;5.262;2023-08-24T15:18:20;23.10;77.80
12839;DHT22;6486;51.034;5.262;2023-08-24T15:20:45;23.20;77.70
12839;DHT22;6486;51.034;5.262;2023-08-24T15:23:21;23.20;77.70
12839;DHT22;6486;51.034;5.262;2023-08-24T15:25:46;23.30;77.70
12839;DHT22;6486;51.034;5.262;2023-08-24T15:28:12;23.30;77.70
12839;DHT22;6486;51.034;5.262;2023-08-24T15:30:38;23.30;77.60
12839;DHT22;6486;51.034;5.262;2023-08-24T15:33:03;23.40;77.60
12839;DHT22;6486;51.034;5.262;2023-08-24T15:35:29;23.40;78.30
12839;DHT22;6486;51.034;5.262;2023-08-24T15:37:55;23.40;77.40
12839;DHT22;6486;51.034;5.262;2023-08-24T15:40:20;23.50;77.40
12839;DHT22;6486;51.034;5.262;2023-08-24T15:42:46;23.50;77.30
12839;DHT22;6486;51.034;5.262;2023-08-24T15:45:12;23.60;77.30
12839;DHT22;6486;51.034;5.262;2023-08-24T15:47:38;23.60;77.30
12839;DHT22;6486;51.034;5.262;2023-08-24T15:50:04;23.70;77.20
12839;DHT22;6486;51.034;5.262;2023-08-24T15:52:30;23.70;77.20
12839;DHT22;6486;51.034;5.262;2023-08-24T15:54:56;23.80;77.10
12839;DHT22;6486;51.034;5.262;2023-08-24T15:57:21;23.90;77.10
12839;DHT22;6486;51.034;5.262;2023-08-24T15:59:47;24.00;76.90
12839;DHT22;6486;51.034;5.262;2023-08-24T16:02:12;24.00;76.70
12839;DHT22;6486;51.034;5.262;2023-08-24T16:04:38;24.10;76.60
12839;DHT22;6486;51.034;5.262;2023-08-24T16:07:04;24.10;76.40